Time;durP1;ratioP1;P1;durP2;ratioP2;P2;SDS_P1;SDS_P2;PMS_P1;PMS_P2;Temp;Humidity;BMP_temperature;BMP_pressure;BME280_temperature;BME280_humidity;BME280_pressure;Samples;Min_cycle;Max_cycle;Signal;HPM_P1;HPM_P2
2022/08/14 00:00:58;;;;;;;10.40;6.88;;;;;;;;;;4981690;28;20046;-78
2022/08/14 00:03:44;;;;;;;10.43;7.88;;;;;;;;;;4981807;28;20046;-79
2022/08/14 00:06:29;;;;;;;7.03;6.32;;;;;;;;;;4981436;28;20386;-79
2022/08/14 00:09:14;;;;;;;9.32;6.88;;;;;;;;;;4981562;28;20042;-80
2022/08/14 00:12:00;;;;;;;8.90;7.38;;;;;;;;;;4975174;28;20043;-79
2022/08/14 00:14:47;;;;;;;10.35;6.57;;;;;;;;;;4975234;28;20058;-81
2022/08/14 00:17:32;;;;;;;7.38;6.35;;;;;;;;;;4984773;28;20046;-80
2022/08/14 00:20:22;;;;;;;10.05;6.55;;;;;;;;;;5000579;28;20054;-79
2022/08/14 00:23:09;;;;;;;10.73;6.38;;;;;;;;;;4995114;28;20054;-80
2022/08/14 00:25:54;;;;;;;8.52;6.63;;;;;;;;;;4986453;28;20485;-80
2022/08/14 00:28:40;;;;;;;6.88;6.18;;;;;;;;;;4994637;28;20050;-81
2022/08/14 00:31:26;;;;;;;9.18;6.55;;;;;;;;;;4986048;28;20043;-82
2022/08/14 00:34:12;;;;;;;7.40;6.30;;;;;;;;;;4994182;28;20046;-80
2022/08/14 00:36:57;;;;;;;7.13;6.43;;;;;;;;;;4994280;28;20043;-78
2022/08/14 00:39:43;;;;;;;11.18;7.65;;;;;;;;;;4994252;28;20054;-80
2022/08/14 00:42:29;;;;;;;7.57;6.47;;;;;;;;;;4994408;28;20095;-82
2022/08/14 00:45:15;;;;;;;8.90;6.47;;;;;;;;;;4994543;28;20047;-79
2022/08/14 00:48:01;;;;;;;8.82;6.90;;;;;;;;;;5000671;28;20050;-81
2022/08/14 00:50:46;;;;;;;8.18;6.60;;;;;;;;;;4994137;28;20050;-82
2022/08/14 00:53:32;;;;;;;10.77;7.57;;;;;;;;;;4980227;28;20477;-82
2022/08/14 00:56:19;;;;;;;7.53;6.75;;;;;;;;;;5000531;28;20054;-80
2022/08/14 00:59:04;;;;;;;8.85;7.28;;;;;;;;;;4996553;28;20474;-81
2022/08/14 01:01:50;;;;;;;9.20;7.25;;;;;;;;;;4985893;28;20421;-81
2022/08/14 01:04:36;;;;;;;7.80;7.00;;;;;;;;;;4994087;28;20109;-80
2022/08/14 01:07:25;;;;;;;7.28;6.55;;;;;;;;;;4994150;28;20051;-81
2022/08/14 01:10:11;;;;;;;11.05;7.82;;;;;;;;;;5000256;28;20409;-80
2022/08/14 01:12:57;;;;;;;9.07;7.80;;;;;;;;;;5000721;28;20058;-81
2022/08/14 01:15:43;;;;;;;9.75;7.93;;;;;;;;;;4994461;28;20505;-81
2022/08/14 01:21:38;;;;;;;10.05;7.88;;;;;;;;;;5000524;28;20054;-82
2022/08/14 01:24:23;;;;;;;8.38;7.47;;;;;;;;;;4994901;28;20046;-80
2022/08/14 01:27:17;;;;;;;11.98;7.47;;;;;;;;;;5000656;28;20481;-81
2022/08/14 01:30:05;;;;;;;7.60;6.63;;;;;;;;;;4985505;28;20481;-81
2022/08/14 01:32:53;;;;;;;11.65;7.18;;;;;;;;;;4995859;28;20405;-82
2022/08/14 01:35:39;;;;;;;10.05;7.47;;;;;;;;;;4997695;28;20046;-80
2022/08/14 01:38:25;;;;;;;11.88;7.43;;;;;;;;;;4989163;28;20050;-82
2022/08/14 01:41:11;;;;;;;9.45;7.53;;;;;;;;;;5003730;28;20054;-81
2022/08/14 01:44:02;;;;;;;11.77;7.22;;;;;;;;;;4997070;28;20058;-80
2022/08/14 01:46:49;;;;;;;11.48;7.18;;;;;;;;;;4996950;28;20046;-80
2022/08/14 01:49:35;;;;;;;12.05;7.60;;;;;;;;;;4990884;28;20051;-82
2022/08/14 01:52:21;;;;;;;10.98;8.20;;;;;;;;;;4979756;28;20401;-82
2022/08/14 01:55:11;;;;;;;33.17;18.90;;;;;;;;;;4994380;28;20034;-79
2022/08/14 01:57:57;;;;;;;26.17;16.60;;;;;;;;;;4995425;28;20406;-79
2022/08/14 02:00:43;;;;;;;28.95;19.65;;;;;;;;;;4979423;28;20046;-79
2022/08/14 02:03:34;;;;;;;37.97;24.10;;;;;;;;;;4992564;28;20050;-82
2022/08/14 02:06:20;;;;;;;30.15;19.80;;;;;;;;;;4983757;28;20051;-81
2022/08/14 02:09:07;;;;;;;14.63;11.10;;;;;;;;;;4983690;28;20042;-81
2022/08/14 02:11:52;;;;;;;30.52;19.70;;;;;;;;;;4981556;28;20046;-79
2022/08/14 02:14:39;;;;;;;26.92;18.45;;;;;;;;;;4984081;28;20051;-80
2022/08/14 02:17:25;;;;;;;18.45;12.60;;;;;;;;;;4979496;28;20050;-81
2022/08/14 02:20:11;;;;;;;14.80;10.98;;;;;;;;;;5002978;28;20054;-80
2022/08/14 02:22:56;;;;;;;14.20;10.70;;;;;;;;;;4997006;28;20050;-80
2022/08/14 02:25:42;;;;;;;13.50;11.98;;;;;;;;;;5002971;28;20417;-80
2022/08/14 02:28:30;;;;;;;16.92;12.05;;;;;;;;;;5003629;28;20058;-80
2022/08/14 02:31:15;;;;;;;16.52;12.82;;;;;;;;;;5004252;28;20473;-81
2022/08/14 02:34:12;;;;;;;15.48;13.05;;;;;;;;;;5004327;28;20054;-79
2022/08/14 02:37:01;;;;;;;14.18;12.07;;;;;;;;;;4996124;28;20043;-80
2022/08/14 02:39:46;;;;;;;14.75;12.13;;;;;;;;;;5002506;28;20062;-81
2022/08/14 02:42:33;;;;;;;16.92;12.27;;;;;;;;;;4996513;28;20042;-80
2022/08/14 02:45:18;;;;;;;14.60;12.35;;;;;;;;;;5001447;28;20046;-79
2022/08/14 02:48:06;;;;;;;15.18;12.60;;;;;;;;;;5002284;28;20046;-81
2022/08/14 02:50:51;;;;;;;14.25;11.68;;;;;;;;;;4983044;28;20050;-78
2022/08/14 02:53:44;;;;;;;14.52;12.23;;;;;;;;;;4982780;28;20046;-80
2022/08/14 02:56:30;;;;;;;16.90;11.82;;;;;;;;;;4983143;28;20046;-79
2022/08/14 02:59:16;;;;;;;14.13;12.40;;;;;;;;;;4978612;28;20458;-81
2022/08/14 03:02:03;;;;;;;13.65;11.10;;;;;;;;;;4995819;28;20394;-82
2022/08/14 03:04:48;;;;;;;15.20;10.82;;;;;;;;;;4995509;28;20046;-81
2022/08/14 03:07:34;;;;;;;14.93;11.85;;;;;;;;;;4995759;28;20047;-80
2022/08/14 03:10:19;;;;;;;18.38;12.70;;;;;;;;;;5001996;28;20041;-82
2022/08/14 03:13:05;;;;;;;15.43;12.32;;;;;;;;;;5002398;28;20054;-80
2022/08/14 03:15:52;;;;;;;16.30;12.55;;;;;;;;;;5001813;28;20053;-81
2022/08/14 03:18:44;;;;;;;15.52;12.45;;;;;;;;;;4995502;28;20038;-81
2022/08/14 03:21:30;;;;;;;15.30;12.20;;;;;;;;;;4994875;28;20050;-81
2022/08/14 03:24:15;;;;;;;20.60;13.20;;;;;;;;;;5000676;28;20050;-81
2022/08/14 03:27:02;;;;;;;15.20;13.40;;;;;;;;;;4995669;28;20050;-82
2022/08/14 03:29:47;;;;;;;17.13;14.43;;;;;;;;;;4967447;28;20042;-80
2022/08/14 03:32:32;;;;;;;16.27;13.57;;;;;;;;;;4982283;28;20410;-81
2022/08/14 03:35:18;;;;;;;15.95;13.30;;;;;;;;;;4975844;28;20454;-80
2022/08/14 03:38:08;;;;;;;17.15;13.10;;;;;;;;;;4982525;28;20047;-82
2022/08/14 03:40:54;;;;;;;18.35;13.30;;;;;;;;;;5001629;28;20046;-79
2022/08/14 03:43:40;;;;;;;18.77;13.32;;;;;;;;;;5001525;28;20046;-79
2022/08/14 03:46:29;;;;;;;16.83;13.73;;;;;;;;;;5000939;28;20047;-79
2022/08/14 03:49:19;;;;;;;19.33;13.32;;;;;;;;;;4994705;28;20046;-79
2022/08/14 03:52:04;;;;;;;20.25;13.50;;;;;;;;;;5001353;28;20050;-80
2022/08/14 03:54:50;;;;;;;16.98;13.85;;;;;;;;;;4994558;28;20050;-79
2022/08/14 03:57:35;;;;;;;19.02;13.93;;;;;;;;;;5000417;28;20046;-80
2022/08/14 04:00:21;;;;;;;17.98;13.93;;;;;;;;;;4994823;28;20042;-80
2022/08/14 04:03:08;;;;;;;16.33;12.45;;;;;;;;;;5001184;28;20050;-80
2022/08/14 04:05:54;;;;;;;17.73;14.05;;;;;;;;;;5001158;28;20049;-80
2022/08/14 04:08:40;;;;;;;15.85;12.98;;;;;;;;;;4994785;28;20058;-78
2022/08/14 04:11:26;;;;;;;20.88;13.38;;;;;;;;;;4994311;28;20039;-81
2022/08/14 04:14:12;;;;;;;14.45;12.50;;;;;;;;;;4995095;28;20050;-80
2022/08/14 04:16:58;;;;;;;20.80;13.10;;;;;;;;;;5000870;28;20054;-80
2022/08/14 04:19:44;;;;;;;17.38;13.52;;;;;;;;;;4981350;28;20413;-79
2022/08/14 04:22:31;;;;;;;16.60;13.07;;;;;;;;;;4981585;28;20050;-80
2022/08/14 04:25:17;;;;;;;16.27;12.90;;;;;;;;;;4981320;28;20054;-81
2022/08/14 04:28:08;;;;;;;15.20;11.85;;;;;;;;;;4982012;28;20062;-81
2022/08/14 04:30:55;;;;;;;13.73;12.05;;;;;;;;;;4974380;28;20130;-80
2022/08/14 04:33:40;;;;;;;14.35;11.65;;;;;;;;;;4981616;28;20050;-80
2022/08/14 04:36:25;;;;;;;14.80;11.40;;;;;;;;;;4974780;28;20047;-80
2022/08/14 04:45:22;;;;;;;13.90;11.30;;;;;;;;;;4980951;28;20475;-81
2022/08/14 04:48:13;;;;;;;13.18;10.35;;;;;;;;;;4975454;28;20050;-80
2022/08/14 04:50:59;;;;;;;12.77;10.95;;;;;;;;;;4974870;28;20051;-79
2022/08/14 04:53:47;;;;;;;19.85;11.23;;;;;;;;;;4974668;28;20054;-79
2022/08/14 04:56:32;;;;;;;12.10;9.15;;;;;;;;;;4981576;28;20478;-80
2022/08/14 04:59:17;;;;;;;15.45;11.23;;;;;;;;;;4976623;28;20470;-80
2022/08/14 05:02:03;;;;;;;15.63;12.15;;;;;;;;;;4981202;28;20055;-78
2022/08/14 05:04:49;;;;;;;15.23;11.80;;;;;;;;;;4974941;28;20050;-78
2022/08/14 05:07:35;;;;;;;16.00;12.23;;;;;;;;;;4982501;28;20050;-79
2022/08/14 05:10:24;;;;;;;15.10;11.55;;;;;;;;;;4988970;28;20421;-78
2022/08/14 05:13:12;;;;;;;16.85;12.48;;;;;;;;;;4998228;28;20050;-79
2022/08/14 05:15:58;;;;;;;13.48;11.32;;;;;;;;;;5004538;28;20058;-79
2022/08/14 05:18:45;;;;;;;16.25;11.35;;;;;;;;;;4982020;28;20046;-79
2022/08/14 05:21:32;;;;;;;13.68;11.65;;;;;;;;;;5003389;28;20062;-79
2022/08/14 05:24:17;;;;;;;17.60;12.07;;;;;;;;;;4978679;28;20046;-80
2022/08/14 05:27:03;;;;;;;15.05;12.23;;;;;;;;;;5002446;28;20050;-79
2022/08/14 05:29:49;;;;;;;14.80;12.20;;;;;;;;;;4997845;28;20054;-78
2022/08/14 05:32:35;;;;;;;14.80;11.70;;;;;;;;;;5000661;28;20038;-78
2022/08/14 05:35:21;;;;;;;14.73;12.25;;;;;;;;;;4997603;28;20050;-80
2022/08/14 05:38:15;;;;;;;15.57;12.18;;;;;;;;;;4978983;28;20042;-80
2022/08/14 05:41:06;;;;;;;14.13;12.38;;;;;;;;;;4983436;28;20413;-80
2022/08/14 05:43:51;;;;;;;12.93;10.63;;;;;;;;;;5003831;28;20054;-81
2022/08/14 05:46:37;;;;;;;16.40;12.30;;;;;;;;;;4997313;28;20054;-80
2022/08/14 05:49:22;;;;;;;15.07;12.45;;;;;;;;;;5003267;28;20050;-78
2022/08/14 05:52:08;;;;;;;16.23;12.00;;;;;;;;;;5003628;28;20050;-80
2022/08/14 05:54:53;;;;;;;16.73;12.82;;;;;;;;;;5003380;28;20220;-78
2022/08/14 05:57:57;;;;;;;15.50;12.55;;;;;;;;;;4996525;28;20038;-78
2022/08/14 06:00:45;;;;;;;18.40;14.07;;;;;;;;;;4996738;28;20054;-81
2022/08/14 06:03:30;;;;;;;14.18;12.55;;;;;;;;;;5003392;28;20054;-76
2022/08/14 06:06:17;;;;;;;17.63;13.52;;;;;;;;;;5003389;28;20047;-80
2022/08/14 06:09:03;;;;;;;15.68;12.43;;;;;;;;;;5002820;28;20058;-79
2022/08/14 06:11:48;;;;;;;18.95;13.05;;;;;;;;;;5003049;28;20042;-79
2022/08/14 06:14:34;;;;;;;15.43;13.02;;;;;;;;;;5003126;28;20046;-79
2022/08/14 06:17:19;;;;;;;17.17;13.00;;;;;;;;;;5002775;28;20401;-81
2022/08/14 06:20:05;;;;;;;18.52;13.85;;;;;;;;;;4994901;28;20046;-79
2022/08/14 06:22:50;;;;;;;19.02;13.32;;;;;;;;;;5002945;28;20046;-78
2022/08/14 06:25:36;;;;;;;15.95;12.77;;;;;;;;;;5002870;28;20397;-80
2022/08/14 06:28:24;;;;;;;18.10;13.07;;;;;;;;;;4993889;28;20054;-79
2022/08/14 06:31:10;;;;;;;14.93;11.75;;;;;;;;;;4992097;28;20059;-81
2022/08/14 06:33:58;;;;;;;17.95;13.23;;;;;;;;;;4997529;28;20054;-80
2022/08/14 06:36:43;;;;;;;16.23;12.68;;;;;;;;;;4986290;28;20043;-79
2022/08/14 06:39:29;;;;;;;15.15;12.05;;;;;;;;;;4985989;28;20042;-81
2022/08/14 06:42:14;;;;;;;14.65;12.02;;;;;;;;;;4992630;28;20058;-80
2022/08/14 06:45:00;;;;;;;13.48;11.32;;;;;;;;;;4992304;28;20054;-79
2022/08/14 06:47:49;;;;;;;14.10;11.18;;;;;;;;;;4992239;28;20046;-81
2022/08/14 06:50:34;;;;;;;14.70;12.35;;;;;;;;;;4992465;28;20046;-80
2022/08/14 06:53:21;;;;;;;14.45;11.20;;;;;;;;;;4995119;28;20061;-80
2022/08/14 06:56:06;;;;;;;14.98;11.80;;;;;;;;;;5002864;28;20043;-78
2022/08/14 06:58:52;;;;;;;12.95;10.70;;;;;;;;;;4998034;28;20054;-82
2022/08/14 07:07:46;;;;;;;13.88;10.88;;;;;;;;;;5002192;28;20050;-80
2022/08/14 07:10:32;;;;;;;13.13;8.90;;;;;;;;;;5002085;28;20046;-79
2022/08/14 07:13:18;;;;;;;14.27;10.75;;;;;;;;;;4997450;28;20429;-79
2022/08/14 07:16:04;;;;;;;12.65;9.63;;;;;;;;;;4994531;28;20041;-78
2022/08/14 07:18:50;;;;;;;14.98;11.48;;;;;;;;;;4995031;28;20050;-80
2022/08/14 07:21:36;;;;;;;27.50;21.27;;;;;;;;;;4984397;28;20054;-79
2022/08/14 07:24:21;;;;;;;49.03;35.53;;;;;;;;;;4986541;28;20050;-79
2022/08/14 07:27:07;;;;;;;17.35;12.63;;;;;;;;;;4982194;28;20680;-80
2022/08/14 07:29:52;;;;;;;299.02;198.68;;;;;;;;;;4982224;28;20051;-80
2022/08/14 07:32:38;;;;;;;60.33;38.70;;;;;;;;;;4988556;28;20046;-78
2022/08/14 07:35:23;;;;;;;105.68;68.03;;;;;;;;;;4983085;28;20426;-78
2022/08/14 07:38:17;;;;;;;232.68;172.48;;;;;;;;;;4981930;28;20039;-78
2022/08/14 07:41:04;;;;;;;26.23;17.40;;;;;;;;;;4987034;28;20050;-80
2022/08/14 07:43:49;;;;;;;16.58;13.55;;;;;;;;;;4990349;28;20042;-80
2022/08/14 07:46:35;;;;;;;17.42;13.85;;;;;;;;;;5000610;28;20432;-79
2022/08/14 07:49:21;;;;;;;16.83;13.35;;;;;;;;;;4983446;28;20046;-79
2022/08/14 07:52:06;;;;;;;16.23;12.20;;;;;;;;;;4977550;28;20486;-78
2022/08/14 07:54:53;;;;;;;16.58;12.68;;;;;;;;;;4987001;28;20042;-78
2022/08/14 07:57:43;;;;;;;18.30;14.35;;;;;;;;;;4987394;28;20042;-80
2022/08/14 08:00:29;;;;;;;20.20;15.13;;;;;;;;;;5000955;28;20046;-80
2022/08/14 08:03:16;;;;;;;20.92;15.00;;;;;;;;;;5000792;28;20441;-80
2022/08/14 08:06:01;;;;;;;18.40;14.60;;;;;;;;;;5001308;28;20042;-79
2022/08/14 08:08:50;;;;;;;19.85;14.60;;;;;;;;;;4994402;28;20050;-79
2022/08/14 08:11:35;;;;;;;15.32;12.63;;;;;;;;;;4994439;28;20046;-80
2022/08/14 08:14:21;;;;;;;15.27;10.55;;;;;;;;;;4998691;28;20485;-79
2022/08/14 08:17:07;;;;;;;16.83;11.18;;;;;;;;;;5000540;28;20050;-81
2022/08/14 08:19:52;;;;;;;17.88;14.30;;;;;;;;;;4983808;28;20054;-79
2022/08/14 08:22:41;;;;;;;16.52;13.15;;;;;;;;;;4991795;28;20058;-82
2022/08/14 08:25:33;;;;;;;22.83;15.80;;;;;;;;;;4981459;28;20050;-81
2022/08/14 08:28:24;;;;;;;22.08;16.48;;;;;;;;;;4986773;28;20054;-78
2022/08/14 08:31:11;;;;;;;19.60;15.05;;;;;;;;;;4992091;28;20486;-79
2022/08/14 08:33:56;;;;;;;21.85;15.98;;;;;;;;;;4999177;28;20046;-79
2022/08/14 08:36:43;;;;;;;23.00;15.93;;;;;;;;;;5000490;28;20047;-78
2022/08/14 08:39:28;;;;;;;20.17;14.80;;;;;;;;;;5001201;28;20042;-79
2022/08/14 08:42:24;;;;;;;20.02;14.75;;;;;;;;;;5002016;28;20050;-78
2022/08/14 08:45:09;;;;;;;21.00;14.57;;;;;;;;;;5004557;28;20046;-78
2022/08/14 08:47:55;;;;;;;18.25;14.02;;;;;;;;;;4995409;28;20051;-78
2022/08/14 08:50:40;;;;;;;20.00;14.35;;;;;;;;;;4984571;28;20054;-79
2022/08/14 08:53:31;;;;;;;19.58;14.50;;;;;;;;;;4997376;28;20393;-79
2022/08/14 08:56:16;;;;;;;18.00;14.35;;;;;;;;;;4997654;28;20042;-79
2022/08/14 08:59:14;;;;;;;18.45;14.30;;;;;;;;;;4997233;28;20409;-80
2022/08/14 09:02:06;;;;;;;27.77;16.27;;;;;;;;;;4992834;28;20054;-79
2022/08/14 09:05:00;;;;;;;30.33;18.75;;;;;;;;;;4998261;28;20493;-80
2022/08/14 09:07:46;;;;;;;19.25;14.82;;;;;;;;;;4991449;28;20042;-79
2022/08/14 09:10:32;;;;;;;19.17;15.25;;;;;;;;;;5004421;28;20042;-80
2022/08/14 09:13:18;;;;;;;20.40;14.15;;;;;;;;;;5003013;28;20042;-79
2022/08/14 09:16:03;;;;;;;16.42;13.50;;;;;;;;;;4998044;28;20043;-78
2022/08/14 09:18:49;;;;;;;18.17;12.23;;;;;;;;;;5003832;28;20050;-78
2022/08/14 09:21:38;;;;;;;20.13;13.13;;;;;;;;;;5004226;28;20062;-77
2022/08/14 09:24:23;;;;;;;21.65;13.65;;;;;;;;;;5001262;28;20485;-78
2022/08/14 09:27:09;;;;;;;15.48;12.18;;;;;;;;;;5003329;28;20042;-78
2022/08/14 09:29:54;;;;;;;15.60;12.02;;;;;;;;;;4997616;28;20426;-78
2022/08/14 09:33:03;;;;;;;13.65;10.45;;;;;;;;;;4996767;28;20043;-81
2022/08/14 09:36:02;;;;;;;12.63;9.52;;;;;;;;;;4969308;28;20047;-77
2022/08/14 09:38:59;;;;;;;13.55;10.27;;;;;;;;;;4999027;28;20046;-81
2022/08/14 09:42:12;;;;;;;12.20;9.88;;;;;;;;;;4998246;28;20485;-80
2022/08/14 09:45:15;;;;;;;14.57;11.00;;;;;;;;;;4996566;28;20062;-78
2022/08/14 09:48:01;;;;;;;16.38;11.25;;;;;;;;;;4994303;28;20042;-81
2022/08/14 09:50:51;;;;;;;12.82;10.05;;;;;;;;;;4993329;28;20035;-79
2022/08/14 09:53:46;;;;;;;14.00;11.13;;;;;;;;;;5001330;28;20046;-80
2022/08/14 09:56:45;;;;;;;17.17;12.70;;;;;;;;;;5003753;28;20054;-80
2022/08/14 09:59:46;;;;;;;9.65;7.07;;;;;;;;;;4998202;28;20393;-81
2022/08/14 10:02:32;;;;;;;13.98;10.95;;;;;;;;;;5003354;28;20058;-83
2022/08/14 10:05:30;;;;;;;12.80;9.75;;;;;;;;;;5003534;28;20046;-80
2022/08/14 10:08:19;;;;;;;12.70;10.07;;;;;;;;;;4988069;28;20050;-80
2022/08/14 10:11:23;;;;;;;15.93;10.90;;;;;;;;;;4988783;28;20256;-79
2022/08/14 10:14:17;;;;;;;17.35;10.77;;;;;;;;;;4996518;28;20072;-81
2022/08/14 10:17:05;;;;;;;14.35;11.65;;;;;;;;;;5003569;28;20050;-80
2022/08/14 10:19:50;;;;;;;11.10;9.35;;;;;;;;;;4978883;28;20051;-80
2022/08/14 10:22:35;;;;;;;11.77;10.10;;;;;;;;;;4995939;28;20062;-80
2022/08/14 10:25:21;;;;;;;12.18;10.00;;;;;;;;;;4996622;28;20393;-81
2022/08/14 10:28:07;;;;;;;13.45;10.52;;;;;;;;;;4997256;28;20055;-82
2022/08/14 10:30:53;;;;;;;13.05;11.23;;;;;;;;;;4993105;28;20047;-80
2022/08/14 10:33:39;;;;;;;13.05;10.57;;;;;;;;;;4985011;28;20482;-77
2022/08/14 10:36:32;;;;;;;13.80;10.40;;;;;;;;;;4996155;28;20054;-79
2022/08/14 10:39:22;;;;;;;13.32;9.10;;;;;;;;;;5002181;28;20046;-80
2022/08/14 10:42:13;;;;;;;13.45;10.13;;;;;;;;;;4995620;28;20050;-79
2022/08/14 10:44:58;;;;;;;14.60;11.77;;;;;;;;;;4994127;28;20050;-80
2022/08/14 10:47:44;;;;;;;13.65;12.18;;;;;;;;;;5000057;28;20046;-79
2022/08/14 10:50:36;;;;;;;10.35;8.75;;;;;;;;;;4987793;28;20034;-79
2022/08/14 10:53:31;;;;;;;16.90;12.00;;;;;;;;;;4991578;28;20042;-82
2022/08/14 10:56:16;;;;;;;14.52;11.63;;;;;;;;;;4992444;28;20046;-79
2022/08/14 10:59:04;;;;;;;16.02;12.15;;;;;;;;;;4988556;28;20397;-79
2022/08/14 11:01:49;;;;;;;11.63;9.35;;;;;;;;;;4984132;28;20042;-79
2022/08/14 11:04:35;;;;;;;13.77;9.40;;;;;;;;;;5000713;28;20054;-80
2022/08/14 11:07:21;;;;;;;13.38;9.93;;;;;;;;;;5002495;28;20046;-82
2022/08/14 11:10:12;;;;;;;11.80;9.35;;;;;;;;;;4994976;28;20474;-80
2022/08/14 11:12:56;;;;;;;12.25;9.95;;;;;;;;;;5001973;28;20042;-79
2022/08/14 11:15:45;;;;;;;10.57;8.88;;;;;;;;;;4987235;28;20046;-79
2022/08/14 11:18:31;;;;;;;8.40;6.70;;;;;;;;;;5001546;28;20042;-81
2022/08/14 11:21:21;;;;;;;10.80;8.25;;;;;;;;;;5001606;28;20050;-81
2022/08/14 11:24:11;;;;;;;12.82;9.85;;;;;;;;;;4997995;28;20047;-80
2022/08/14 11:26:59;;;;;;;14.48;11.50;;;;;;;;;;5001849;28;20046;-79
2022/08/14 11:29:48;;;;;;;12.95;10.70;;;;;;;;;;4994688;28;20038;-78
2022/08/14 11:32:33;;;;;;;14.57;11.10;;;;;;;;;;4981765;28;20493;-80
2022/08/14 11:35:22;;;;;;;12.95;7.82;;;;;;;;;;4990208;28;20043;-81
2022/08/14 11:38:11;;;;;;;13.65;11.38;;;;;;;;;;5001286;28;20058;-81
2022/08/14 11:40:57;;;;;;;12.50;10.52;;;;;;;;;;4995235;28;20046;-78
2022/08/14 11:43:44;;;;;;;14.75;11.98;;;;;;;;;;5002047;28;20046;-80
2022/08/14 11:46:31;;;;;;;14.05;11.30;;;;;;;;;;5000373;28;20401;-79
2022/08/14 11:49:29;;;;;;;14.70;10.25;;;;;;;;;;4991720;28;20042;-81
2022/08/14 11:52:18;;;;;;;14.18;10.75;;;;;;;;;;4990432;28;20208;-77
2022/08/14 11:55:07;;;;;;;12.48;9.40;;;;;;;;;;4993062;28;20042;-78
2022/08/14 11:58:07;;;;;;;13.82;10.80;;;;;;;;;;4994392;28;20047;-81
2022/08/14 12:00:59;;;;;;;13.75;11.25;;;;;;;;;;4993652;28;20054;-80
2022/08/14 12:03:46;;;;;;;16.08;12.98;;;;;;;;;;4989787;28;20054;-77
2022/08/14 12:06:49;;;;;;;15.15;12.48;;;;;;;;;;4988197;28;20046;-79
2022/08/14 12:09:37;;;;;;;24.52;17.42;;;;;;;;;;4991131;28;20046;-81
2022/08/14 12:12:24;;;;;;;21.85;15.55;;;;;;;;;;4984251;28;20043;-77
2022/08/14 12:15:11;;;;;;;15.48;12.48;;;;;;;;;;4994871;28;20050;-82
2022/08/14 12:17:58;;;;;;;17.20;12.68;;;;;;;;;;4987338;28;20046;-77
2022/08/14 12:20:44;;;;;;;14.75;12.07;;;;;;;;;;4971997;28;20485;-78
2022/08/14 12:23:29;;;;;;;16.27;11.70;;;;;;;;;;4992420;28;20066;-79
2022/08/14 12:26:19;;;;;;;15.88;12.95;;;;;;;;;;4991784;28;20046;-77
2022/08/14 12:29:12;;;;;;;17.02;12.52;;;;;;;;;;4985163;28;20043;-81
2022/08/14 12:32:02;;;;;;;13.48;11.05;;;;;;;;;;4991096;28;20046;-81
2022/08/14 12:34:53;;;;;;;18.83;14.75;;;;;;;;;;4974804;28;20482;-79
2022/08/14 12:37:46;;;;;;;113.15;78.60;;;;;;;;;;4986932;28;20402;-77
2022/08/14 12:40:32;;;;;;;67.97;46.50;;;;;;;;;;5000453;28;20046;-79
2022/08/14 12:43:20;;;;;;;15.07;12.55;;;;;;;;;;4995719;28;20054;-79
2022/08/14 12:46:05;;;;;;;27.58;21.10;;;;;;;;;;4990913;28;20486;-79
2022/08/14 12:48:51;;;;;;;149.70;114.05;;;;;;;;;;4983724;28;20046;-77
2022/08/14 12:51:37;;;;;;;23.55;13.77;;;;;;;;;;4984307;28;20047;-79
2022/08/14 12:54:23;;;;;;;14.68;9.98;;;;;;;;;;4989547;28;20482;-79
2022/08/14 12:57:14;;;;;;;11.13;8.05;;;;;;;;;;4974408;28;20386;-80
2022/08/14 13:00:16;;;;;;;13.02;9.10;;;;;;;;;;4965152;28;20043;-78
2022/08/14 13:03:04;;;;;;;9.43;7.32;;;;;;;;;;4961955;29;20059;-79
2022/08/14 13:05:49;;;;;;;15.35;8.77;;;;;;;;;;4962137;29;20063;-79
2022/08/14 13:08:35;;;;;;;16.85;11.15;;;;;;;;;;4962579;28;20055;-78
2022/08/14 13:11:22;;;;;;;10.50;7.65;;;;;;;;;;4965095;28;20051;-80
2022/08/14 13:14:08;;;;;;;8.20;6.43;;;;;;;;;;4962972;29;20043;-78
2022/08/14 13:16:56;;;;;;;8.30;7.03;;;;;;;;;;4962630;29;20051;-77
2022/08/14 13:19:44;;;;;;;7.35;6.53;;;;;;;;;;4961677;28;20043;-80
2022/08/14 13:22:31;;;;;;;8.13;6.68;;;;;;;;;;4961715;28;20059;-79
2022/08/14 13:25:23;;;;;;;7.65;6.43;;;;;;;;;;4961660;28;20055;-82
2022/08/14 13:28:12;;;;;;;20.13;12.98;;;;;;;;;;4961693;28;20043;-80
2022/08/14 13:31:02;;;;;;;21.45;13.23;;;;;;;;;;4977149;28;20477;-80
2022/08/14 13:33:49;;;;;;;16.17;11.48;;;;;;;;;;4983893;28;20039;-80
2022/08/14 13:36:35;;;;;;;6.53;5.82;;;;;;;;;;4984115;28;20054;-81
2022/08/14 13:39:23;;;;;;;6.65;5.72;;;;;;;;;;4984308;28;20466;-80
2022/08/14 13:42:10;;;;;;;6.93;5.63;;;;;;;;;;4984174;28;20051;-80
2022/08/14 13:44:59;;;;;;;6.90;6.20;;;;;;;;;;4977327;28;20478;-78
2022/08/14 13:47:45;;;;;;;8.25;5.57;;;;;;;;;;4984046;28;20051;-81
2022/08/14 13:50:30;;;;;;;5.47;4.88;;;;;;;;;;4974622;28;20047;-80
2022/08/14 13:53:17;;;;;;;5.70;5.15;;;;;;;;;;4970440;28;20422;-82
2022/08/14 13:56:08;;;;;;;5.78;5.15;;;;;;;;;;4973226;28;20042;-84
2022/08/14 13:59:00;;;;;;;6.93;5.53;;;;;;;;;;4975789;28;20051;-81
2022/08/14 14:01:46;;;;;;;6.10;5.13;;;;;;;;;;4987861;28;20050;-81
2022/08/14 14:04:45;;;;;;;5.97;5.28;;;;;;;;;;4992049;28;20046;-81
2022/08/14 14:07:32;;;;;;;6.07;4.95;;;;;;;;;;4989007;28;20417;-83
2022/08/14 14:10:20;;;;;;;8.65;5.60;;;;;;;;;;4993458;28;20034;-81
2022/08/14 14:13:06;;;;;;;6.05;5.00;;;;;;;;;;4977261;28;20042;-82
2022/08/14 14:15:53;;;;;;;6.05;4.68;;;;;;;;;;4988913;28;20054;-82
2022/08/14 14:18:39;;;;;;;9.13;5.60;;;;;;;;;;4998541;28;20038;-82
2022/08/14 14:21:29;;;;;;;6.18;5.45;;;;;;;;;;5003218;28;20051;-81
2022/08/14 14:24:14;;;;;;;8.40;6.18;;;;;;;;;;4996253;28;20054;-80
2022/08/14 14:27:04;;;;;;;8.20;6.18;;;;;;;;;;4988187;28;20054;-79
2022/08/14 14:29:50;;;;;;;10.68;6.35;;;;;;;;;;5003031;28;20046;-81
2022/08/14 14:32:43;;;;;;;8.95;5.72;;;;;;;;;;5002815;28;20050;-82
2022/08/14 14:35:29;;;;;;;7.00;5.72;;;;;;;;;;5002585;28;20046;-82
2022/08/14 14:38:15;;;;;;;10.40;6.07;;;;;;;;;;4988335;28;20046;-81
2022/08/14 14:41:02;;;;;;;9.27;6.63;;;;;;;;;;4994763;28;20046;-82
2022/08/14 14:43:51;;;;;;;8.60;6.75;;;;;;;;;;4996242;28;20046;-81
2022/08/14 14:46:39;;;;;;;10.10;6.50;;;;;;;;;;5001635;28;20046;-80
2022/08/14 14:49:26;;;;;;;8.73;6.30;;;;;;;;;;4995841;28;20477;-82
2022/08/14 14:52:11;;;;;;;8.75;7.00;;;;;;;;;;4987917;28;20047;-82
2022/08/14 14:54:58;;;;;;;9.63;7.25;;;;;;;;;;4981827;28;20055;-81
2022/08/14 14:57:45;;;;;;;9.50;7.15;;;;;;;;;;4976732;28;20035;-84
2022/08/14 15:00:31;;;;;;;14.57;9.73;;;;;;;;;;4978874;28;20038;-80
2022/08/14 15:03:16;;;;;;;17.38;10.90;;;;;;;;;;4982502;28;20417;-80
2022/08/14 15:06:02;;;;;;;16.33;12.00;;;;;;;;;;4999178;28;20062;-79
2022/08/14 15:08:47;;;;;;;13.15;9.75;;;;;;;;;;4995741;28;20042;-81
2022/08/14 15:11:33;;;;;;;13.20;10.15;;;;;;;;;;4989461;28;20402;-79
2022/08/14 15:14:21;;;;;;;9.27;7.15;;;;;;;;;;4982254;28;20043;-80
2022/08/14 15:17:06;;;;;;;8.05;7.10;;;;;;;;;;4987612;28;20489;-79
2022/08/14 15:19:53;;;;;;;7.70;6.60;;;;;;;;;;4982741;28;20051;-79
2022/08/14 15:22:39;;;;;;;9.65;6.85;;;;;;;;;;4975447;28;20051;-80
2022/08/14 15:25:28;;;;;;;8.85;6.70;;;;;;;;;;4974769;28;20047;-82
2022/08/14 15:28:14;;;;;;;8.77;6.00;;;;;;;;;;4998165;28;20042;-81
2022/08/14 15:31:01;;;;;;;6.93;6.22;;;;;;;;;;4997776;28;20043;-78
2022/08/14 15:36:50;;;;;;;7.85;6.65;;;;;;;;;;4994919;28;20046;-81
2022/08/14 15:39:36;;;;;;;9.45;7.68;;;;;;;;;;5000546;28;20494;-81
2022/08/14 15:42:22;;;;;;;9.07;7.57;;;;;;;;;;5001298;28;20058;-80
2022/08/14 15:45:11;;;;;;;10.27;7.35;;;;;;;;;;5001300;28;20054;-81
2022/08/14 15:47:56;;;;;;;11.90;6.63;;;;;;;;;;5001663;28;20050;-81
2022/08/14 15:50:43;;;;;;;8.30;5.85;;;;;;;;;;5001150;28;20050;-79
2022/08/14 15:53:29;;;;;;;7.97;5.95;;;;;;;;;;5001389;28;20481;-80
2022/08/14 15:56:15;;;;;;;7.55;5.72;;;;;;;;;;5001269;28;20046;-79
2022/08/14 15:59:01;;;;;;;6.88;6.00;;;;;;;;;;4996559;28;20058;-79
2022/08/14 16:01:50;;;;;;;8.93;6.97;;;;;;;;;;4994575;28;20046;-78
2022/08/14 16:04:36;;;;;;;7.38;5.97;;;;;;;;;;5001094;28;20054;-79
2022/08/14 16:07:22;;;;;;;8.07;6.13;;;;;;;;;;5001092;28;20054;-79
2022/08/14 16:10:08;;;;;;;8.13;6.28;;;;;;;;;;5001082;28;20050;-79
2022/08/14 16:12:54;;;;;;;8.32;6.82;;;;;;;;;;5000420;28;20046;-80
2022/08/14 16:15:43;;;;;;;9.55;7.30;;;;;;;;;;5000885;28;20050;-81
2022/08/14 16:18:34;;;;;;;11.10;7.63;;;;;;;;;;5000747;28;20058;-80
2022/08/14 16:21:21;;;;;;;9.75;6.78;;;;;;;;;;5001007;28;20038;-79
2022/08/14 16:24:07;;;;;;;8.88;6.53;;;;;;;;;;5002071;28;20050;-81
2022/08/14 16:26:53;;;;;;;7.75;6.22;;;;;;;;;;5003785;28;20046;-80
2022/08/14 16:29:41;;;;;;;7.35;5.75;;;;;;;;;;4995784;28;20054;-77
2022/08/14 16:32:27;;;;;;;5.82;5.30;;;;;;;;;;5001891;28;20050;-80
2022/08/14 16:35:12;;;;;;;6.20;5.60;;;;;;;;;;5000986;28;20047;-79
2022/08/14 16:37:59;;;;;;;5.65;4.97;;;;;;;;;;5000824;28;20046;-80
2022/08/14 16:40:45;;;;;;;5.80;4.78;;;;;;;;;;5000497;28;20058;-80
2022/08/14 16:43:30;;;;;;;8.35;5.45;;;;;;;;;;5000384;28;20406;-79